Aérodrome :
LOGIN :

S'inscrire | Disclaimer

   EN    FR    IT 

 










Légende :    VFR   VFR Marginal   IFR   IFR Intensif   IFR Très Intensif
Visi : 
Plafond : 
>= 8 km
>= 3000ft
5 à 8 km
1000 à 3000 ft
1500m à 5 km
500 à 1000 ft
800 à 1500m
200 à 500 ft
< 800m
< 200 ft
Symboles :   Orages  Brouillard  Fortes neiges  Fortes précipitations  Vent > 20 kt
SIGMETs :   Divers  Orages  Givrage  Turbulence  Onde Orograph.  Cendres Volcan.







- Altitude de l'aérodrome : 297 ft
- Code IATA : BBU


LRBS - Bucarest - Baneasa Aurel Vlaicu

DERNIER METAR :
  • 220300Z 09002KT CAVOK 21/16 Q1017 NOSIG

METARs EXPIRÉS :
  • 220230Z VRB02KT CAVOK 20/16 Q1017 NOSIG
  • 220200Z 05004KT 010V080 CAVOK 20/16 Q1017 NOSIG
  • 220130Z 04005KT 360V080 CAVOK 20/16 Q1017 NOSIG
  • 220100Z 03004KT 340V070 CAVOK 20/16 Q1017 NOSIG
  • 220030Z 01003KT 330V070 CAVOK 19/17 Q1017 NOSIG

TAF TAF LRBS
Valide du 22 à 00h jusqu'au 23 à 00h UTC


212300Z 2200/2224 VRB04KT CAVOK
BECMG 2207/2209 05010KT
PROB30
TEMPO 2214/2218 VRB18G28KT 3000 TSRA SCT040CB
BECMG 2218/2220 VRB04KT
Pas de NOTAMs connus pour ce terrain.



MET'MAP, la Météo Aéronautique d'un coup d'oeil ! - Copyright ORBIFLY Décembre 2007 - Disclaimer

ORBIFLY MET'MAP TEAM :

Programmation & Développement : Alexandra Zaïnal
Conception & Développement : Baudouin d'Aumeries
Co-Programmation & Développement : Marc-Olivier Méhu
Soutien technique & logistique : Manuel Goepfert

Contact : metmap@orbifly.com




SOURCES & CREDITS :

   NOAA